createdAt,value
2023-05-23T00:06:01.137Z,4.33
2023-05-23T00:16:44.039Z,4.30
2023-05-23T00:27:24.714Z,4.03
2023-05-23T00:38:07.797Z,4.00
2023-05-23T00:48:48.359Z,3.50
2023-05-23T00:59:30.102Z,3.45
2023-05-23T01:10:11.493Z,4.13
2023-05-23T01:21:06.654Z,4.53
2023-05-23T01:31:52.508Z,4.28
2023-05-23T01:42:33.349Z,4.57
2023-05-23T01:53:17.664Z,4.83
2023-05-23T02:03:58.320Z,4.80
2023-05-23T02:14:39.642Z,4.97
2023-05-23T02:25:20.748Z,4.93
2023-05-23T02:36:02.247Z,4.93
2023-05-23T02:46:42.782Z,4.93
2023-05-23T02:57:23.543Z,4.33
2023-05-23T03:08:05.317Z,3.77
2023-05-23T03:18:45.545Z,3.97
2023-05-23T03:29:26.231Z,4.00
2023-05-23T03:40:07.439Z,4.70
2023-05-23T03:50:48.255Z,4.63
2023-05-23T04:01:28.972Z,3.92
2023-05-23T04:12:10.227Z,5.43
2023-05-23T04:22:51.206Z,4.53
2023-05-23T04:33:31.729Z,5.50
2023-05-23T04:44:14.880Z,6.17
2023-05-23T04:54:55.964Z,6.13
2023-05-23T05:05:37.351Z,7.00
2023-05-23T05:16:18.150Z,6.20
2023-05-23T05:26:58.752Z,6.83
2023-05-23T05:37:39.195Z,6.18
2023-05-23T05:48:19.923Z,5.75
2023-05-23T05:59:00.472Z,6.20
2023-05-23T06:09:40.774Z,6.10
2023-05-23T06:20:21.347Z,6.28
2023-05-23T06:31:01.749Z,5.57
2023-05-23T06:41:43.091Z,5.80
2023-05-23T06:52:23.374Z,5.28
2023-05-23T07:02:45.709Z,5.00
2023-05-23T07:13:05.780Z,5.90
2023-05-23T07:23:26.089Z,6.35
2023-05-23T07:33:46.504Z,5.65
2023-05-23T07:44:09.569Z,5.53
2023-05-23T07:54:50.002Z,5.63
2023-05-23T08:05:30.307Z,6.25
2023-05-23T08:16:11.135Z,6.00
2023-05-23T08:26:35.038Z,6.00
2023-05-23T08:36:55.089Z,5.40
2023-05-23T08:47:17.677Z,5.40
2023-05-23T08:57:39.311Z,4.87
2023-05-23T09:07:59.476Z,4.57
2023-05-23T09:18:19.655Z,3.97
2023-05-23T09:28:42.499Z,3.43
2023-05-23T09:39:08.010Z,4.57
2023-05-23T09:49:28.376Z,5.63
2023-05-23T09:59:58.911Z,3.43
2023-05-23T10:10:19.869Z,4.07
2023-05-23T10:20:47.536Z,3.67
2023-05-23T10:31:08.126Z,3.40
2023-05-23T10:41:41.522Z,3.73
2023-05-23T10:52:03.632Z,3.75
2023-05-23T11:02:29.064Z,4.13
2023-05-23T11:12:49.379Z,3.03
2023-05-23T11:23:09.585Z,3.40
2023-05-23T11:33:30.367Z,3.28
2023-05-23T11:43:52.261Z,3.30
2023-05-23T11:54:12.537Z,3.63
2023-05-23T12:04:53.167Z,2.92
2023-05-23T12:15:34.449Z,2.93
2023-05-23T12:25:56.718Z,2.90
2023-05-23T12:36:23.087Z,3.88
2023-05-23T12:46:43.575Z,2.60
2023-05-23T12:57:24.264Z,3.20
2023-05-23T13:08:05.018Z,2.27
2023-05-23T13:18:45.500Z,2.78
2023-05-23T13:29:25.896Z,2.70
2023-05-23T13:40:07.753Z,3.03
2023-05-23T13:50:48.200Z,2.85
2023-05-23T14:01:29.448Z,2.27
2023-05-23T14:12:10.213Z,2.83
2023-05-23T14:22:51.500Z,2.63
2023-05-23T14:33:32.308Z,2.58
2023-05-23T14:44:12.854Z,3.00
2023-05-23T14:54:53.821Z,2.60
2023-05-23T15:05:34.238Z,2.30
2023-05-23T15:16:16.057Z,2.77
2023-05-23T15:27:04.906Z,2.33
2023-05-23T15:37:53.381Z,2.05
2023-05-23T15:48:34.145Z,2.00
2023-05-23T15:59:14.484Z,2.30
2023-05-23T16:09:55.105Z,2.70
2023-05-23T16:20:35.536Z,2.25
2023-05-23T16:31:16.789Z,2.50
2023-05-23T16:42:00.322Z,2.17
2023-05-23T16:52:41.571Z,2.42
2023-05-23T17:03:22.161Z,2.27
2023-05-23T17:14:02.579Z,2.50
2023-05-23T17:24:43.041Z,2.30
2023-05-23T17:35:23.422Z,2.23
2023-05-23T17:46:04.163Z,2.20
2023-05-23T17:56:45.217Z,2.03
2023-05-23T18:07:25.830Z,1.77
2023-05-23T18:18:06.689Z,1.53
2023-05-23T18:28:46.951Z,2.30
2023-05-23T18:39:27.144Z,2.28
2023-05-23T18:50:08.029Z,2.20
2023-05-23T19:00:49.345Z,1.50
2023-05-23T19:11:29.855Z,1.80
2023-05-23T19:22:10.853Z,1.83
2023-05-23T19:32:51.370Z,2.43
2023-05-23T19:43:32.086Z,2.22
2023-05-23T19:54:13.555Z,2.40
2023-05-23T20:04:54.238Z,1.67
2023-05-23T20:15:39.802Z,1.83
2023-05-23T20:26:22.299Z,2.17
2023-05-23T20:37:03.562Z,1.80
2023-05-23T20:47:44.211Z,2.00
2023-05-23T20:58:24.963Z,2.05
2023-05-23T21:09:06.046Z,1.70
2023-05-23T21:19:46.727Z,1.43
2023-05-23T21:30:27.339Z,1.40
2023-05-23T21:41:07.886Z,2.00
2023-05-23T21:51:48.084Z,1.50
2023-05-23T22:02:28.683Z,1.60
2023-05-23T22:13:09.642Z,1.48
2023-05-23T22:23:50.104Z,2.13
2023-05-23T22:34:30.961Z,1.87
2023-05-23T22:45:11.727Z,1.77
2023-05-23T22:55:52.264Z,1.80
2023-05-23T23:06:33.920Z,2.13
2023-05-23T23:17:14.771Z,1.70
2023-05-23T23:27:55.828Z,1.40
2023-05-23T23:38:37.616Z,1.73
2023-05-23T23:49:19.419Z,1.50
2023-05-23T23:59:59.872Z,1.83
